createdAt,value
2022-08-20T00:01:04.355Z,8.23
2022-08-20T00:03:35.069Z,9.00
2022-08-20T00:06:16.856Z,8.27
2022-08-20T00:08:44.885Z,8.00
2022-08-20T00:11:15.388Z,6.93
2022-08-20T00:13:47.354Z,8.65
2022-08-20T00:16:15.516Z,8.98
2022-08-20T00:18:44.022Z,8.83
2022-08-20T00:21:19.202Z,8.52
2022-08-20T00:23:49.189Z,7.68
2022-08-20T00:26:17.692Z,7.70
2022-08-20T00:28:45.022Z,8.82
2022-08-20T00:31:14.243Z,9.88
2022-08-20T00:33:41.531Z,7.72
2022-08-20T00:36:10.729Z,9.27
2022-08-20T00:38:39.993Z,9.10
2022-08-20T00:41:10.698Z,10.40
2022-08-20T00:44:06.171Z,10.27
2022-08-20T00:46:34.183Z,8.27
2022-08-20T00:49:03.009Z,8.82
2022-08-20T00:51:33.934Z,9.02
2022-08-20T00:54:21.647Z,8.82
2022-08-20T00:57:05.559Z,7.88
2022-08-20T00:59:35.427Z,7.60
2022-08-20T01:02:05.043Z,10.20
2022-08-20T01:04:33.956Z,9.75
2022-08-20T01:07:02.467Z,9.30
2022-08-20T01:09:49.754Z,10.52
2022-08-20T01:12:18.351Z,9.73
2022-08-20T01:14:46.659Z,8.63
2022-08-20T01:17:17.703Z,9.50
2022-08-20T01:20:10.937Z,8.55
2022-08-20T01:23:14.303Z,9.45
2022-08-20T01:26:06.099Z,8.35
2022-08-20T01:28:39.319Z,8.63
2022-08-20T01:31:08.688Z,9.73
2022-08-20T01:33:35.705Z,7.63
2022-08-20T01:36:02.971Z,9.82
2022-08-20T01:38:30.375Z,8.45
2022-08-20T01:41:28.901Z,10.07
2022-08-20T01:43:58.519Z,10.55
2022-08-20T01:46:57.822Z,9.73
2022-08-20T01:49:29.615Z,11.27
2022-08-20T01:52:02.266Z,10.68
2022-08-20T01:54:29.204Z,11.27
2022-08-20T01:57:12.786Z,11.45
2022-08-20T01:59:40.146Z,11.27
2022-08-20T02:02:08.086Z,12.18
2022-08-20T02:04:35.283Z,9.75
2022-08-20T02:07:04.671Z,9.52
2022-08-20T02:09:37.585Z,10.73
2022-08-20T02:12:06.873Z,10.85
2022-08-20T02:14:42.183Z,9.63
2022-08-20T02:17:10.903Z,7.32
2022-08-20T02:19:48.137Z,10.30
2022-08-20T02:22:34.656Z,9.27
2022-08-20T02:25:02.265Z,9.00
2022-08-20T02:27:29.165Z,9.73
2022-08-20T02:29:56.059Z,9.48
2022-08-20T02:32:32.161Z,8.15
2022-08-20T02:35:03.004Z,8.18
2022-08-20T02:37:30.391Z,9.18
2022-08-20T02:39:57.347Z,8.73
2022-08-20T02:42:24.257Z,9.07
2022-08-20T02:44:51.702Z,9.13
2022-08-20T02:47:18.779Z,8.65
2022-08-20T02:49:45.760Z,9.48
2022-08-20T02:52:12.650Z,9.10
2022-08-20T02:54:39.503Z,8.15
2022-08-20T02:57:12.940Z,9.25
2022-08-20T02:59:39.799Z,9.07
2022-08-20T03:02:06.701Z,8.85
2022-08-20T03:04:33.542Z,8.27
2022-08-20T03:07:00.458Z,8.90
2022-08-20T03:09:27.358Z,7.93
2022-08-20T03:11:54.423Z,6.60
2022-08-20T03:14:21.387Z,7.35
2022-08-20T03:16:48.291Z,8.70
2022-08-20T03:19:15.358Z,8.13
2022-08-20T03:21:42.809Z,9.10
2022-08-20T03:24:09.704Z,10.05
2022-08-20T03:26:36.760Z,9.10
2022-08-20T03:29:04.137Z,7.65
2022-08-20T03:31:31.137Z,8.48
2022-08-20T03:33:58.039Z,8.07
2022-08-20T03:36:28.045Z,8.48
2022-08-20T03:39:02.786Z,8.10
2022-08-20T03:41:30.047Z,8.68
2022-08-20T03:43:57.386Z,8.10
2022-08-20T03:46:25.042Z,8.45
2022-08-20T03:48:56.631Z,7.55
2022-08-20T03:51:29.660Z,7.25
2022-08-20T03:53:56.658Z,8.50
2022-08-20T03:56:23.688Z,7.72
2022-08-20T03:58:50.665Z,8.77
2022-08-20T04:01:45.592Z,7.57
2022-08-20T04:04:04.882Z,7.47
2022-08-20T04:06:31.895Z,8.02
2022-08-20T04:08:58.855Z,7.60
2022-08-20T04:11:25.715Z,6.90
2022-08-20T04:13:52.639Z,7.20
2022-08-20T04:16:19.621Z,7.20
2022-08-20T04:18:58.610Z,6.90
2022-08-20T04:21:32.985Z,7.43
2022-08-20T04:24:01.525Z,6.80
2022-08-20T04:26:28.475Z,7.83
2022-08-20T04:28:55.703Z,7.80
2022-08-20T04:31:32.666Z,6.43
2022-08-20T04:34:01.661Z,7.60
2022-08-20T04:36:29.435Z,7.72
2022-08-20T04:38:57.486Z,7.22
2022-08-20T04:41:24.571Z,7.55
2022-08-20T04:43:56.135Z,7.13
2022-08-20T04:46:27.620Z,7.45
2022-08-20T04:48:55.746Z,7.45
2022-08-20T04:51:23.085Z,6.40
2022-08-20T04:53:53.484Z,7.18
2022-08-20T04:56:26.485Z,7.53
2022-08-20T04:58:57.445Z,7.25
2022-08-20T05:01:25.137Z,6.78
2022-08-20T05:03:56.211Z,7.07
2022-08-20T05:06:28.574Z,7.63
2022-08-20T05:08:57.897Z,7.28
2022-08-20T05:11:33.853Z,6.95
2022-08-20T05:14:08.908Z,6.30
2022-08-20T05:16:40.896Z,5.80
2022-08-20T05:19:10.247Z,6.22
2022-08-20T05:24:05.564Z,6.15
2022-08-20T05:26:33.408Z,5.53
2022-08-20T05:29:00.273Z,6.07
2022-08-20T05:31:32.294Z,4.70
2022-08-20T05:34:12.253Z,5.57
2022-08-20T05:36:46.838Z,6.20
2022-08-20T05:39:15.949Z,5.97
2022-08-20T05:41:42.997Z,5.22
2022-08-20T05:44:13.502Z,5.63
2022-08-20T05:46:42.720Z,5.75
2022-08-20T05:49:12.240Z,5.20
2022-08-20T05:51:39.340Z,5.72
2022-08-20T05:54:07.473Z,5.70
2022-08-20T05:56:35.925Z,6.00
2022-08-20T05:59:05.283Z,5.38
2022-08-20T06:01:33.481Z,4.88
2022-08-20T06:04:19.452Z,6.17
2022-08-20T06:06:47.518Z,5.30
2022-08-20T06:09:30.595Z,4.85
2022-08-20T06:12:01.660Z,4.88
2022-08-20T06:14:28.657Z,4.70
2022-08-20T06:16:57.955Z,4.18
2022-08-20T06:19:27.131Z,4.70
2022-08-20T06:21:59.809Z,5.20
2022-08-20T06:24:27.032Z,4.88
2022-08-20T06:26:59.454Z,4.85
2022-08-20T06:29:27.178Z,4.57
2022-08-20T06:31:54.897Z,5.47
2022-08-20T06:34:22.244Z,4.57
2022-08-20T06:36:49.067Z,4.47
2022-08-20T06:39:16.568Z,4.30
2022-08-20T06:41:43.400Z,4.38
2022-08-20T06:44:10.274Z,4.15
2022-08-20T06:46:38.603Z,4.55
2022-08-20T06:49:07.340Z,3.67
2022-08-20T06:51:34.742Z,3.72
2022-08-20T06:54:01.605Z,3.47
2022-08-20T06:56:28.472Z,3.80
2022-08-20T06:58:55.581Z,4.10
2022-08-20T07:01:22.698Z,3.55
2022-08-20T07:03:55.877Z,3.60
2022-08-20T07:06:25.645Z,3.15
2022-08-20T07:08:53.538Z,3.80
2022-08-20T07:11:27.048Z,3.42
2022-08-20T07:13:56.729Z,4.00
2022-08-20T07:16:24.183Z,3.30
2022-08-20T07:18:51.024Z,3.40
2022-08-20T07:21:17.890Z,3.35
2022-08-20T07:23:45.118Z,3.75
2022-08-20T07:26:13.132Z,3.42
2022-08-20T07:28:40.339Z,3.28
2022-08-20T07:31:27.022Z,3.45
2022-08-20T07:33:54.090Z,3.55
2022-08-20T07:36:21.101Z,3.35
2022-08-20T07:38:51.046Z,2.95
2022-08-20T07:41:19.108Z,4.03
2022-08-20T07:43:47.175Z,3.50
2022-08-20T07:46:16.564Z,3.00
2022-08-20T07:48:49.959Z,3.35
2022-08-20T07:51:20.269Z,2.72
2022-08-20T07:53:48.576Z,3.10
2022-08-20T07:56:24.311Z,2.78
2022-08-20T07:58:55.226Z,2.83
2022-08-20T08:01:26.099Z,3.28
2022-08-20T08:03:53.523Z,2.75
2022-08-20T08:06:28.692Z,2.58
2022-08-20T08:09:01.908Z,2.90
2022-08-20T08:11:29.764Z,2.80
2022-08-20T08:13:56.826Z,2.65
2022-08-20T08:16:23.788Z,2.30
2022-08-20T08:18:56.331Z,3.00
2022-08-20T08:21:23.671Z,3.00
2022-08-20T08:23:50.660Z,2.83
2022-08-20T08:26:19.332Z,2.40
2022-08-20T08:28:46.779Z,2.20
2022-08-20T08:31:14.841Z,2.63
2022-08-20T08:33:42.338Z,2.25
2022-08-20T08:36:12.854Z,2.35
2022-08-20T08:38:44.213Z,2.72
2022-08-20T08:41:31.863Z,2.53
2022-08-20T08:44:27.821Z,2.78
2022-08-20T08:46:58.265Z,2.28
2022-08-20T08:49:35.172Z,2.28
2022-08-20T08:52:24.708Z,2.50
2022-08-20T08:54:58.409Z,2.92
2022-08-20T08:57:26.036Z,2.70
2022-08-20T09:00:03.862Z,2.30
2022-08-20T09:02:33.424Z,2.13
2022-08-20T09:05:03.738Z,2.25
2022-08-20T09:07:33.417Z,2.28
2022-08-20T09:10:02.324Z,2.20
2022-08-20T09:12:29.266Z,2.15
2022-08-20T09:14:56.116Z,2.00
2022-08-20T09:17:23.735Z,2.55
2022-08-20T09:19:52.356Z,1.90
2022-08-20T09:22:21.679Z,2.55
2022-08-20T09:24:49.887Z,2.58
2022-08-20T09:27:17.311Z,2.45
2022-08-20T09:29:44.998Z,2.17
2022-08-20T09:32:21.297Z,2.17
2022-08-20T09:34:52.671Z,2.10
2022-08-20T09:37:19.615Z,1.95
2022-08-20T09:39:47.716Z,2.28
2022-08-20T09:42:30.189Z,2.00
2022-08-20T09:44:58.092Z,2.08
2022-08-20T09:47:25.748Z,2.15
2022-08-20T09:49:53.330Z,1.60
2022-08-20T09:52:29.553Z,2.05
2022-08-20T09:55:02.352Z,1.90
2022-08-20T09:57:30.772Z,2.05
2022-08-20T10:00:04.992Z,2.22
2022-08-20T10:02:31.817Z,1.90
2022-08-20T10:04:58.726Z,2.08
2022-08-20T10:07:25.966Z,1.90
2022-08-20T10:09:52.864Z,2.20
2022-08-20T10:12:19.894Z,2.10
2022-08-20T10:14:46.779Z,2.05
2022-08-20T10:17:13.617Z,1.80
2022-08-20T10:19:40.593Z,2.10
2022-08-20T10:22:07.535Z,1.90
2022-08-20T10:24:34.929Z,1.67
2022-08-20T10:27:02.159Z,1.83
2022-08-20T10:29:30.371Z,1.60
2022-08-20T10:31:57.705Z,1.60
2022-08-20T10:34:25.766Z,1.73
2022-08-20T10:36:52.729Z,1.88
2022-08-20T10:39:19.666Z,1.42
2022-08-20T10:41:46.548Z,2.25
2022-08-20T10:44:13.466Z,2.00
2022-08-20T10:46:40.500Z,1.63
2022-08-20T10:49:07.451Z,1.75
2022-08-20T10:51:34.378Z,1.80
2022-08-20T10:54:01.695Z,1.35
2022-08-20T10:56:28.593Z,1.65
2022-08-20T10:58:55.480Z,2.42
2022-08-20T11:01:31.324Z,1.83
2022-08-20T11:03:59.844Z,1.88
2022-08-20T11:06:26.667Z,1.95
2022-08-20T11:08:53.533Z,1.90
2022-08-20T11:11:24.032Z,1.77
2022-08-20T11:13:51.095Z,2.20
2022-08-20T11:16:18.201Z,1.88
2022-08-20T11:18:47.473Z,1.95
2022-08-20T11:21:15.144Z,1.80
2022-08-20T11:23:42.039Z,1.95
2022-08-20T11:26:09.600Z,1.85
2022-08-20T11:28:36.562Z,1.70
2022-08-20T11:31:03.587Z,2.28
2022-08-20T11:33:30.433Z,1.90
2022-08-20T11:35:57.287Z,2.03
2022-08-20T11:38:24.367Z,1.77
2022-08-20T11:40:51.251Z,1.60
2022-08-20T11:43:18.535Z,2.03
2022-08-20T11:45:48.747Z,1.67
2022-08-20T11:48:15.800Z,1.80
2022-08-20T11:50:42.682Z,1.95
2022-08-20T11:53:09.686Z,1.50
2022-08-20T11:55:37.430Z,1.70
2022-08-20T11:58:06.073Z,2.08
2022-08-20T12:00:34.229Z,1.90
2022-08-20T12:03:04.736Z,1.80
2022-08-20T12:05:32.349Z,1.98
2022-08-20T12:08:01.376Z,2.45
2022-08-20T12:10:29.364Z,1.85
2022-08-20T12:12:56.801Z,1.80
2022-08-20T12:15:25.310Z,2.00
2022-08-20T12:17:52.557Z,2.40
2022-08-20T12:20:19.551Z,2.15
2022-08-20T12:22:46.680Z,1.90
2022-08-20T12:25:13.796Z,1.90
2022-08-20T12:27:41.929Z,1.60
2022-08-20T12:30:12.535Z,2.00
2022-08-20T12:32:39.666Z,1.80
2022-08-20T12:35:07.954Z,1.92
2022-08-20T12:37:35.438Z,2.08
2022-08-20T12:40:06.759Z,1.50
2022-08-20T12:42:33.719Z,2.28
2022-08-20T12:45:01.650Z,1.60
2022-08-20T12:47:32.312Z,2.40
2022-08-20T12:50:07.558Z,2.00
2022-08-20T12:52:35.086Z,1.58
2022-08-20T12:55:03.404Z,1.88
2022-08-20T12:57:31.983Z,1.75
2022-08-20T13:02:28.011Z,1.65
2022-08-20T13:04:54.891Z,2.03
2022-08-20T13:07:23.957Z,1.70
2022-08-20T13:09:50.834Z,1.67
2022-08-20T13:12:17.750Z,1.75
2022-08-20T13:14:44.648Z,1.75
2022-08-20T13:17:11.593Z,1.98
2022-08-20T13:19:39.285Z,1.85
2022-08-20T13:22:06.379Z,1.97
2022-08-20T13:24:33.966Z,1.80
2022-08-20T13:27:18.667Z,1.80
2022-08-20T13:29:53.996Z,2.17
2022-08-20T13:32:24.090Z,1.77
2022-08-20T13:34:51.369Z,1.77
2022-08-20T13:37:25.096Z,2.30
2022-08-20T13:39:53.209Z,2.08
2022-08-20T13:42:20.472Z,2.03
2022-08-20T13:44:47.884Z,2.33
2022-08-20T13:47:26.611Z,2.10
2022-08-20T13:50:06.631Z,1.77
2022-08-20T13:52:33.691Z,1.90
2022-08-20T13:55:03.048Z,1.77
2022-08-20T13:57:33.400Z,1.90
2022-08-20T14:00:00.418Z,2.00
2022-08-20T14:02:27.841Z,1.83
2022-08-20T14:04:55.084Z,1.97
2022-08-20T14:07:32.171Z,2.00
2022-08-20T14:10:08.768Z,1.90
2022-08-20T14:12:35.718Z,1.98
2022-08-20T14:15:02.670Z,2.10
2022-08-20T14:17:35.446Z,2.25
2022-08-20T14:20:08.055Z,2.15
2022-08-20T14:22:36.762Z,1.83
2022-08-20T14:25:05.351Z,1.98
2022-08-20T14:27:33.959Z,1.67
2022-08-20T14:30:02.430Z,1.83
2022-08-20T14:32:29.404Z,1.70
2022-08-20T14:34:59.152Z,1.70
2022-08-20T14:37:29.601Z,2.08
2022-08-20T14:39:58.796Z,1.90
2022-08-20T14:42:28.092Z,1.95
2022-08-20T14:44:56.568Z,1.92
2022-08-20T14:47:27.558Z,1.80
2022-08-20T14:49:56.493Z,1.90
2022-08-20T14:52:28.128Z,2.15
2022-08-20T14:54:55.631Z,1.70
2022-08-20T14:57:23.053Z,1.73
2022-08-20T14:59:53.048Z,2.08
2022-08-20T15:02:20.047Z,2.10
2022-08-20T15:04:53.883Z,2.00
2022-08-20T15:07:29.344Z,2.05
2022-08-20T15:09:57.273Z,2.10
2022-08-20T15:12:24.517Z,2.08
2022-08-20T15:14:51.465Z,2.05
2022-08-20T15:17:26.814Z,1.70
2022-08-20T15:19:54.977Z,2.10
2022-08-20T15:22:23.117Z,2.20
2022-08-20T15:24:50.361Z,2.15
2022-08-20T15:27:25.532Z,2.47
2022-08-20T15:29:53.772Z,2.17
2022-08-20T15:32:21.217Z,2.20
2022-08-20T15:34:48.339Z,2.33
2022-08-20T15:37:20.185Z,1.98
2022-08-20T15:39:48.060Z,2.00
2022-08-20T15:42:15.102Z,2.13
2022-08-20T15:44:43.291Z,1.80
2022-08-20T15:47:32.117Z,2.03
2022-08-20T15:50:03.533Z,1.90
2022-08-20T15:52:40.346Z,2.20
2022-08-20T15:55:13.716Z,2.03
2022-08-20T15:58:14.877Z,2.15
2022-08-20T16:00:51.728Z,2.30
2022-08-20T16:03:37.444Z,2.00
2022-08-20T16:06:07.065Z,2.50
2022-08-20T16:09:15.750Z,2.10
2022-08-20T16:11:56.596Z,1.67
2022-08-20T16:14:29.275Z,2.53
2022-08-20T16:17:09.000Z,2.00
2022-08-20T16:19:47.049Z,2.10
2022-08-20T16:22:17.319Z,2.10
2022-08-20T16:24:44.232Z,1.92
2022-08-20T16:27:21.432Z,2.10
2022-08-20T16:30:11.828Z,1.95
2022-08-20T16:32:42.885Z,2.10
2022-08-20T16:35:32.943Z,1.90
2022-08-20T16:38:06.994Z,2.10
2022-08-20T16:41:06.928Z,2.33
2022-08-20T16:43:53.608Z,2.05
2022-08-20T16:46:33.160Z,1.60
2022-08-20T16:49:14.033Z,1.80
2022-08-20T16:51:42.667Z,2.00
2022-08-20T16:54:11.116Z,2.00
2022-08-20T16:56:40.284Z,1.77
2022-08-20T16:59:11.299Z,1.85
2022-08-20T17:01:38.401Z,1.60
2022-08-20T17:04:06.246Z,2.00
2022-08-20T17:06:40.296Z,2.10
2022-08-20T17:09:21.547Z,1.77
2022-08-20T17:11:48.721Z,1.92
2022-08-20T17:14:18.210Z,1.90
2022-08-20T17:16:52.167Z,1.90
2022-08-20T17:19:29.844Z,1.98
2022-08-20T17:22:12.233Z,1.88
2022-08-20T17:24:40.154Z,1.70
2022-08-20T17:27:17.715Z,2.03
2022-08-20T17:29:56.962Z,2.17
2022-08-20T17:34:53.416Z,2.10
2022-08-20T17:37:26.096Z,2.53
2022-08-20T17:40:11.182Z,2.00
2022-08-20T17:42:51.473Z,2.20
2022-08-20T17:45:26.545Z,2.30
2022-08-20T17:47:57.483Z,2.28
2022-08-20T17:50:38.703Z,1.83
2022-08-20T17:53:40.302Z,2.25
2022-08-20T17:56:34.643Z,2.15
2022-08-20T17:59:44.414Z,2.15
2022-08-20T18:02:11.415Z,2.30
2022-08-20T18:04:38.500Z,2.28
2022-08-20T18:07:11.138Z,2.85
2022-08-20T18:09:48.746Z,2.20
2022-08-20T18:12:37.007Z,2.58
2022-08-20T18:15:08.392Z,2.30
2022-08-20T18:17:53.754Z,2.10
2022-08-20T18:20:26.569Z,2.50
2022-08-20T18:23:10.449Z,2.50
2022-08-20T18:25:45.744Z,2.50
2022-08-20T18:28:20.417Z,2.50
2022-08-20T18:30:50.467Z,2.60
2022-08-20T18:33:33.751Z,2.42
2022-08-20T18:36:10.783Z,2.53
2022-08-20T18:38:42.070Z,2.65
2022-08-20T18:41:27.189Z,2.38
2022-08-20T18:44:26.852Z,2.70
2022-08-20T18:46:59.659Z,2.53
2022-08-20T18:49:36.339Z,2.67
2022-08-20T18:52:31.214Z,2.30
2022-08-20T18:55:05.728Z,2.60
2022-08-20T18:57:52.855Z,2.60
2022-08-20T19:00:22.427Z,3.03
2022-08-20T19:03:07.398Z,2.88
2022-08-20T19:05:46.535Z,2.80
2022-08-20T19:08:21.376Z,2.70
2022-08-20T19:11:11.826Z,2.28
2022-08-20T19:13:51.443Z,3.13
2022-08-20T19:18:54.558Z,2.67
2022-08-20T19:21:37.499Z,2.67
2022-08-20T19:24:07.322Z,3.75
2022-08-20T19:26:46.425Z,3.35
2022-08-20T19:29:18.681Z,3.65
2022-08-20T19:31:46.689Z,4.30
2022-08-20T19:34:22.180Z,5.80
2022-08-20T19:37:08.891Z,5.55
2022-08-20T19:39:48.644Z,6.43
2022-08-20T19:42:20.852Z,4.82
2022-08-20T19:44:59.823Z,3.90
2022-08-20T19:47:30.068Z,3.78
2022-08-20T19:50:51.710Z,3.65
2022-08-20T19:53:33.230Z,3.72
2022-08-20T19:56:24.686Z,3.10
2022-08-20T19:59:09.747Z,3.50
2022-08-20T20:01:37.156Z,3.00
2022-08-20T20:04:13.797Z,3.00
2022-08-20T20:06:45.937Z,3.17
2022-08-20T20:09:24.838Z,3.05
2022-08-20T20:12:07.894Z,2.73
2022-08-20T20:14:39.491Z,2.88
2022-08-20T20:17:08.658Z,2.97
2022-08-20T20:19:45.525Z,2.97
2022-08-20T20:22:19.637Z,2.85
2022-08-20T20:25:04.978Z,2.50
2022-08-20T20:27:33.753Z,3.17
2022-08-20T20:30:09.132Z,2.65
2022-08-20T20:32:41.124Z,2.85
2022-08-20T20:35:08.125Z,2.90
2022-08-20T20:37:50.583Z,2.85
2022-08-20T20:40:25.966Z,2.97
2022-08-20T20:43:05.392Z,3.00
2022-08-20T20:45:42.210Z,2.53
2022-08-20T20:48:21.899Z,2.60
2022-08-20T20:50:51.042Z,2.40
2022-08-20T20:53:50.951Z,2.47
2022-08-20T20:56:39.738Z,2.58
2022-08-20T20:59:08.608Z,2.90
2022-08-20T21:01:48.102Z,2.60
2022-08-20T21:04:23.582Z,3.33
2022-08-20T21:06:52.464Z,2.67
2022-08-20T21:09:20.403Z,3.33
2022-08-20T21:11:48.416Z,2.72
2022-08-20T21:14:15.783Z,3.00
2022-08-20T21:16:43.357Z,3.00
2022-08-20T21:19:11.780Z,2.65
2022-08-20T21:21:39.659Z,3.03
2022-08-20T21:24:07.621Z,3.20
2022-08-20T21:26:35.276Z,3.13
2022-08-20T21:29:02.648Z,3.35
2022-08-20T21:31:36.056Z,2.80
2022-08-20T21:34:03.310Z,3.15
2022-08-20T21:36:30.244Z,3.08
2022-08-20T21:38:57.236Z,3.33
2022-08-20T21:41:29.738Z,3.13
2022-08-20T21:43:58.744Z,3.42
2022-08-20T21:46:28.612Z,3.35
2022-08-20T21:48:56.057Z,3.10
2022-08-20T21:51:22.944Z,2.90
2022-08-20T21:53:50.096Z,3.03
2022-08-20T21:56:17.173Z,2.88
2022-08-20T21:58:48.879Z,2.60
2022-08-20T22:01:17.466Z,2.88
2022-08-20T22:03:44.355Z,3.20
2022-08-20T22:06:16.756Z,3.08
2022-08-20T22:08:43.901Z,3.40
2022-08-20T22:11:11.569Z,3.40
2022-08-20T22:13:39.600Z,3.22
2022-08-20T22:16:18.214Z,3.50
2022-08-20T22:18:47.019Z,3.05
2022-08-20T22:21:21.790Z,3.20
2022-08-20T22:23:49.381Z,2.95
2022-08-20T22:26:17.714Z,3.50
2022-08-20T22:28:44.631Z,3.63
2022-08-20T22:31:22.481Z,3.45
2022-08-20T22:33:49.329Z,3.58
2022-08-20T22:36:16.508Z,3.65
2022-08-20T22:38:43.403Z,3.72
2022-08-20T22:41:15.452Z,3.17
2022-08-20T22:43:56.533Z,3.38
2022-08-20T22:46:27.318Z,3.22
2022-08-20T22:48:55.325Z,3.78
2022-08-20T22:51:27.876Z,3.20
2022-08-20T22:53:55.207Z,3.28
2022-08-20T22:56:22.833Z,3.25
2022-08-20T22:58:50.305Z,4.03
2022-08-20T23:01:18.877Z,3.47
2022-08-20T23:03:46.245Z,4.18
2022-08-20T23:06:13.649Z,3.33
2022-08-20T23:08:42.062Z,3.70
2022-08-20T23:11:09.089Z,3.50
2022-08-20T23:13:36.096Z,3.63
2022-08-20T23:16:03.792Z,3.50
2022-08-20T23:18:31.149Z,3.63
2022-08-20T23:20:59.162Z,3.40
2022-08-20T23:23:27.370Z,3.80
2022-08-20T23:25:54.822Z,3.97
2022-08-20T23:28:24.028Z,3.58
2022-08-20T23:30:51.412Z,4.30
2022-08-20T23:33:18.531Z,3.50
2022-08-20T23:35:46.712Z,3.70
2022-08-20T23:38:14.008Z,3.97
2022-08-20T23:40:42.195Z,3.97
2022-08-20T23:43:09.686Z,3.65
2022-08-20T23:45:39.847Z,3.85
2022-08-20T23:48:07.842Z,4.45
2022-08-20T23:50:35.188Z,4.15
2022-08-20T23:53:02.200Z,4.57
2022-08-20T23:55:29.102Z,4.47
2022-08-20T23:57:55.999Z,5.25
